Time;durP1;ratioP1;P1;durP2;ratioP2;P2;SDS_P1;SDS_P2;PMS_P1;PMS_P2;Temp;Humidity;BMP_temperature;BMP_pressure;BME280_temperature;BME280_humidity;BME280_pressure;Samples;Min_cycle;Max_cycle;Signal;HPM_P1;HPM_P2
2022/09/05 00:02:13;;;;;;;5.40;4.40;;;;;;;12.63;92.55;97525.02;107872;1270;28297;-76
2022/09/05 00:05:33;;;;;;;5.60;4.60;;;;;;;12.41;92.54;97521.69;107852;1269;23039;-77
2022/09/05 00:08:27;;;;;;;5.70;4.50;;;;;;;12.30;93.12;97524.09;107743;1269;23873;-77
2022/09/05 00:11:23;;;;;;;5.00;4.10;;;;;;;12.32;93.72;97525.26;107854;1269;22539;-77
2022/09/05 00:14:31;;;;;;;5.50;4.20;;;;;;;12.39;93.82;97525.30;107851;1269;22547;-77
2022/09/05 00:17:29;;;;;;;5.70;4.40;;;;;;;12.39;93.37;97521.42;107844;1269;23122;-77
2022/09/05 00:20:29;;;;;;;6.00;5.40;;;;;;;12.19;93.21;97521.80;107834;1269;25302;-77
2022/09/05 00:23:31;;;;;;;7.40;5.40;;;;;;;11.98;93.42;97524.02;107833;1270;28109;-77
2022/09/05 00:26:31;;;;;;;5.30;4.30;;;;;;;11.79;94.22;97520.42;107947;1270;26640;-77
2022/09/05 00:29:33;;;;;;;6.00;4.50;;;;;;;11.75;95.00;97513.11;107914;1269;25351;-77
2022/09/05 00:32:36;;;;;;;5.50;4.30;;;;;;;11.80;95.42;97511.97;107851;1269;33271;-77
2022/09/05 00:35:53;;;;;;;3.90;3.40;;;;;;;11.89;95.23;97515.46;107968;1269;22545;-77
2022/09/05 00:38:51;;;;;;;6.70;4.20;;;;;;;11.96;94.50;97516.73;107911;1269;22556;-78
2022/09/05 00:41:41;;;;;;;6.70;4.50;;;;;;;11.90;94.02;97510.30;107906;1269;22546;-77
2022/09/05 00:44:34;;;;;;;9.00;5.50;;;;;;;11.75;93.90;97509.56;107912;1269;22556;-77
2022/09/05 00:47:34;;;;;;;5.10;4.40;;;;;;;11.66;94.18;97510.55;107916;1270;22543;-78
2022/09/05 00:50:31;;;;;;;5.90;4.70;;;;;;;11.70;94.39;97511.09;107918;1270;26030;-77
2022/09/05 00:53:26;;;;;;;5.60;4.30;;;;;;;11.79;94.35;97509.25;107876;1270;24970;-77
2022/09/05 00:56:40;;;;;;;4.90;4.10;;;;;;;11.81;93.62;97510.08;107915;1270;22691;-78
2022/09/05 01:00:00;;;;;;;4.80;3.70;;;;;;;11.80;93.38;97507.09;107905;1270;22611;-78
2022/09/05 01:03:20;;;;;;;6.60;5.40;;;;;;;11.83;93.73;97505.25;107858;1270;30558;-77
2022/09/05 01:06:29;;;;;;;7.10;5.30;;;;;;;11.77;93.69;97505.95;107947;1270;22598;-77
2022/09/05 01:09:30;;;;;;;5.80;4.40;;;;;;;11.68;93.61;97506.46;107910;1269;22547;-77
2022/09/05 01:12:34;;;;;;;6.10;4.00;;;;;;;11.70;93.92;97505.63;107855;1270;41307;-77
2022/09/05 01:15:29;;;;;;;6.00;4.50;;;;;;;11.74;94.33;97503.61;107951;1270;25304;-78
2022/09/05 01:18:34;;;;;;;5.60;5.00;;;;;;;11.77;94.76;97501.75;107940;1269;25411;-77
2022/09/05 01:21:49;;;;;;;8.30;5.20;;;;;;;11.81;94.91;97503.20;107951;1269;22546;-77
2022/09/05 01:25:04;;;;;;;5.90;5.30;;;;;;;11.84;95.21;97501.70;107910;1270;23136;-77
2022/09/05 01:27:58;;;;;;;5.60;4.60;;;;;;;11.88;94.86;97503.23;107895;1270;24441;-77
2022/09/05 01:30:52;;;;;;;8.40;6.00;;;;;;;11.72;94.15;97503.61;107928;1270;22604;-77
2022/09/05 01:33:48;;;;;;;9.30;5.80;;;;;;;11.44;93.75;97508.63;107851;1269;25211;-77
2022/09/05 01:36:52;;;;;;;9.50;6.50;;;;;;;11.18;93.87;97508.86;107934;1270;22573;-76
2022/09/05 01:39:54;;;;;;;5.90;4.90;;;;;;;11.04;94.51;97507.48;107873;1270;22611;-77
2022/09/05 01:42:50;;;;;;;4.90;4.30;;;;;;;11.05;95.27;97510.30;107864;1270;27335;-76
2022/09/05 01:45:50;;;;;;;8.40;5.80;;;;;;;11.05;95.57;97513.52;107935;1270;22566;-77
2022/09/05 01:48:53;;;;;;;7.00;5.70;;;;;;;11.02;95.91;97512.35;107903;1270;25307;-77
2022/09/05 01:52:06;;;;;;;5.40;4.70;;;;;;;11.01;96.10;97511.23;107876;1270;28027;-76
2022/09/05 01:55:18;;;;;;;5.30;4.70;;;;;;;11.09;97.33;97510.52;107906;1270;24040;-77
2022/09/05 01:58:16;;;;;;;6.00;4.80;;;;;;;11.22;98.02;97511.63;107936;1270;22557;-77
2022/09/05 02:01:12;;;;;;;6.20;4.90;;;;;;;11.34;98.49;97512.64;107890;1269;25688;-76
2022/09/05 02:04:18;;;;;;;5.20;4.50;;;;;;;11.41;98.56;97512.02;107780;1271;36764;-76
2022/09/05 02:07:14;;;;;;;6.00;5.00;;;;;;;11.43;98.30;97513.00;107881;1271;22613;-78
2022/09/05 02:10:31;;;;;;;5.10;3.80;;;;;;;11.38;97.90;97513.60;107816;1271;22568;-77
2022/09/05 02:13:28;;;;;;;6.20;4.60;;;;;;;11.31;98.01;97514.23;107683;1270;39993;-78
2022/09/05 02:16:26;;;;;;;5.40;4.80;;;;;;;11.29;98.74;97511.67;107854;1269;24217;-78
2022/09/05 02:19:20;;;;;;;6.40;5.00;;;;;;;11.26;98.94;97507.26;107822;1268;22592;-77
2022/09/05 02:22:15;;;;;;;6.30;4.50;;;;;;;11.24;99.24;97507.18;107829;1270;34625;-77
2022/09/05 02:25:09;;;;;;;7.10;5.90;;;;;;;11.24;99.56;97509.98;107827;1269;22538;-78
2022/09/05 02:28:05;;;;;;;6.00;5.40;;;;;;;11.23;99.77;97503.63;107699;1271;22685;-77
2022/09/05 02:31:03;;;;;;;6.90;6.10;;;;;;;11.21;99.83;97504.89;107793;1270;22582;-78
2022/09/05 02:33:58;;;;;;;6.60;5.50;;;;;;;11.16;99.92;97503.83;107819;1270;32161;-78
2022/09/05 02:36:51;;;;;;;6.80;6.00;;;;;;;11.15;100.00;97504.30;107855;1269;25390;-78
2022/09/05 02:39:47;;;;;;;5.80;5.20;;;;;;;11.17;100.00;97501.80;107854;1270;22539;-77
2022/09/05 02:42:41;;;;;;;7.40;6.10;;;;;;;11.25;100.00;97503.10;107774;1270;31760;-77
2022/09/05 02:45:41;;;;;;;8.30;6.30;;;;;;;11.36;100.00;97501.43;107935;1270;25239;-77
2022/09/05 02:48:46;;;;;;;7.40;5.90;;;;;;;11.47;100.00;97499.98;107927;1270;22546;-78
2022/09/05 02:51:38;;;;;;;6.60;5.40;;;;;;;11.52;100.00;97500.69;107915;1270;24320;-78
2022/09/05 02:54:31;;;;;;;6.50;5.50;;;;;;;11.56;100.00;97500.61;107904;1270;22531;-77
2022/09/05 02:57:36;;;;;;;8.00;6.10;;;;;;;11.61;100.00;97505.17;107906;1270;22556;-77
2022/09/05 03:00:31;;;;;;;6.80;5.40;;;;;;;11.66;100.00;97504.43;107914;1270;24304;-77
2022/09/05 03:03:29;;;;;;;6.40;5.50;;;;;;;11.66;99.97;97504.55;107852;1269;24561;-77
2022/09/05 03:06:31;;;;;;;6.70;4.90;;;;;;;11.67;99.85;97505.81;107933;1270;23888;-77
2022/09/05 03:09:38;;;;;;;5.10;4.40;;;;;;;11.66;99.50;97508.36;107926;1270;22538;-77
2022/09/05 03:12:59;;;;;;;5.30;4.80;;;;;;;11.64;99.05;97509.80;107893;1270;28798;-77
2022/09/05 03:16:17;;;;;;;5.00;4.50;;;;;;;11.61;98.87;97518.66;107921;1270;25386;-77
2022/09/05 03:19:44;;;;;;;6.60;5.10;;;;;;;11.62;98.76;97515.96;107896;1270;22604;-77
2022/09/05 03:23:15;;;;;;;6.90;6.10;;;;;;;11.60;98.68;97526.73;107880;1270;26595;-77
2022/09/05 03:26:42;;;;;;;6.10;5.30;;;;;;;11.51;98.68;97525.00;107953;1270;24282;-77
2022/09/05 03:30:10;;;;;;;6.10;4.60;;;;;;;11.43;98.70;97531.00;107957;1269;22687;-77
2022/09/05 03:33:37;;;;;;;5.50;4.90;;;;;;;11.32;98.13;97528.77;107845;1270;30666;-77
2022/09/05 03:37:08;;;;;;;7.70;6.00;;;;;;;11.07;97.68;97535.73;107954;1270;25247;-77
2022/09/05 03:40:33;;;;;;;6.70;5.20;;;;;;;10.85;97.87;97537.67;107957;1270;22657;-77
2022/09/05 03:43:55;;;;;;;7.50;6.00;;;;;;;10.74;98.80;97541.39;107873;1270;32612;-77
2022/09/05 03:46:59;;;;;;;7.20;6.10;;;;;;;10.73;99.62;97539.37;107952;1270;22642;-77
2022/09/05 03:50:13;;;;;;;7.20;6.00;;;;;;;10.73;100.00;97540.46;107924;1271;22648;-77
2022/09/05 03:53:28;;;;;;;7.20;5.80;;;;;;;10.75;100.00;97537.52;107865;1270;30909;-77
2022/09/05 03:56:47;;;;;;;6.40;5.70;;;;;;;10.81;100.00;97542.11;107921;1270;22539;-77
2022/09/05 03:59:54;;;;;;;7.00;5.10;;;;;;;10.86;100.00;97540.03;107943;1269;25421;-77
2022/09/05 04:02:50;;;;;;;7.60;5.30;;;;;;;10.95;99.94;97542.44;107852;1270;30040;-77
2022/09/05 04:05:43;;;;;;;5.90;5.20;;;;;;;10.99;99.35;97540.26;107878;1271;22693;-77
2022/09/05 04:08:42;;;;;;;9.10;6.50;;;;;;;11.05;99.18;97543.73;107855;1270;25488;-76
2022/09/05 04:11:36;;;;;;;7.50;6.40;;;;;;;11.10;99.09;97542.58;107853;1269;25533;-77
2022/09/05 04:14:30;;;;;;;6.80;5.70;;;;;;;11.11;99.05;97546.56;107902;1270;24237;-76
2022/09/05 04:17:31;;;;;;;7.30;6.20;;;;;;;11.16;99.09;97545.48;107762;1271;22608;-76
2022/09/05 04:20:33;;;;;;;;;;;;;;;11.26;99.57;97546.27;107876;1270;22522;-76
2022/09/05 04:23:34;;;;;;;6.10;5.50;;;;;;;11.53;100.00;97548.39;107828;1270;24265;-76
2022/09/05 04:26:44;;;;;;;6.90;5.00;;;;;;;11.91;99.86;97550.90;107961;1270;22739;-77
2022/09/05 04:29:48;;;;;;;7.70;5.40;;;;;;;12.18;98.10;97553.59;107942;1271;22591;-77
2022/09/05 04:32:51;;;;;;;6.70;4.90;;;;;;;12.25;96.63;97559.66;107878;1270;25407;-77
2022/09/05 04:35:48;;;;;;;5.00;4.50;;;;;;;12.47;96.63;97559.88;107922;1270;24324;-77
2022/09/05 04:38:43;;;;;;;7.00;4.90;;;;;;;12.86;96.47;97565.84;107927;1270;25219;-77
2022/09/05 04:41:33;;;;;;;7.00;5.80;;;;;;;13.33;95.70;97570.02;107931;1270;22612;-77
2022/09/05 04:44:28;;;;;;;7.10;6.40;;;;;;;13.73;94.63;97568.35;107932;1271;22564;-77
2022/09/05 04:47:23;;;;;;;6.20;5.60;;;;;;;14.10;93.17;97570.90;107953;1270;24233;-77
2022/09/05 04:50:15;;;;;;;7.20;6.50;;;;;;;14.03;91.30;97576.23;107968;1271;22681;-77
2022/09/05 04:53:19;;;;;;;6.00;5.40;;;;;;;13.66;90.47;97575.84;107877;1270;29927;-76
2022/09/05 04:56:13;;;;;;;5.10;4.50;;;;;;;13.27;90.83;97582.12;107901;1271;22483;-77
2022/09/05 04:59:08;;;;;;;5.70;4.80;;;;;;;13.05;91.26;97585.77;107953;1271;22578;-78
2022/09/05 05:02:04;;;;;;;7.50;5.20;;;;;;;12.88;92.15;97585.85;107836;1271;39633;-77
2022/09/05 05:05:03;;;;;;;6.80;6.10;;;;;;;12.93;93.13;97590.20;107901;1269;22591;-77
2022/09/05 05:07:57;;;;;;;6.50;5.20;;;;;;;13.03;93.23;97592.11;107925;1271;22538;-77
2022/09/05 05:10:50;;;;;;;7.10;6.20;;;;;;;13.20;93.59;97598.44;107953;1270;24692;-77
2022/09/05 05:13:47;;;;;;;8.70;6.80;;;;;;;13.21;93.04;97598.37;107829;1270;42695;-77
2022/09/05 05:16:41;;;;;;;8.20;7.20;;;;;;;13.15;93.15;97605.02;107934;1270;22543;-78
2022/09/05 05:19:38;;;;;;;6.30;5.70;;;;;;;13.17;93.66;97606.41;107923;1271;22550;-77
2022/09/05 05:22:27;;;;;;;6.60;5.90;;;;;;;13.28;94.32;97609.02;107889;1271;29487;-77
2022/09/05 05:25:17;;;;;;;5.70;5.20;;;;;;;13.49;94.92;97609.59;107925;1271;22604;-77
2022/09/05 05:28:14;;;;;;;6.20;5.10;;;;;;;13.76;95.43;97608.27;107949;1270;25258;-77
2022/09/05 05:31:13;;;;;;;5.80;5.20;;;;;;;13.98;95.37;97608.94;107952;1271;23725;-77
2022/09/05 05:34:05;;;;;;;6.30;5.70;;;;;;;14.08;94.62;97613.89;107836;1271;25308;-77
2022/09/05 05:36:58;;;;;;;6.50;5.90;;;;;;;14.21;93.97;97616.91;107913;1270;22583;-77
2022/09/05 05:39:52;;;;;;;6.80;5.90;;;;;;;15.07;95.13;97613.94;107939;1271;22577;-78
2022/09/05 05:42:45;;;;;;;7.60;5.70;;;;;;;16.51;93.41;97613.30;107827;1271;33121;-78
2022/09/05 05:45:35;;;;;;;6.00;5.40;;;;;;;18.43;92.14;97614.82;107916;1271;24476;-78
2022/09/05 05:48:39;;;;;;;8.60;5.80;;;;;;;20.03;88.04;97610.22;107907;1271;22547;-78
2022/09/05 05:51:41;;;;;;;7.30;5.30;;;;;;;21.72;84.40;97615.09;107851;1271;25299;-78
2022/09/05 05:54:37;;;;;;;6.20;5.40;;;;;;;23.13;80.10;97615.66;107838;1271;22535;-79
2022/09/05 05:57:56;;;;;;;6.70;5.40;;;;;;;24.13;76.21;97608.67;107844;1271;22567;-79
2022/09/05 06:01:14;;;;;;;6.60;5.20;;;;;;;25.34;73.58;97611.95;107888;1271;22550;-79
2022/09/05 06:04:42;;;;;;;5.90;5.20;;;;;;;26.61;69.56;97619.54;107811;1270;29538;-79
2022/09/05 06:07:38;;;;;;;5.30;4.80;;;;;;;27.09;65.51;97620.77;107849;1271;24720;-79
2022/09/05 06:11:06;;;;;;;5.30;4.80;;;;;;;27.50;63.32;97621.09;107888;1271;22597;-79
2022/09/05 06:14:20;;;;;;;4.90;4.50;;;;;;;27.87;60.18;97619.91;107815;1271;24488;-79
2022/09/05 06:17:30;;;;;;;5.80;5.20;;;;;;;28.01;58.00;97620.44;107882;1271;22610;-79
2022/09/05 06:20:49;;;;;;;5.30;4.80;;;;;;;28.00;54.99;97625.41;107861;1271;22575;-78
2022/09/05 06:24:21;;;;;;;6.10;4.90;;;;;;;28.41;55.83;97619.27;107768;1271;39488;-77
2022/09/05 06:27:51;;;;;;;5.10;4.60;;;;;;;28.89;52.47;97621.91;107852;1271;23153;-78
2022/09/05 06:30:50;;;;;;;6.50;5.00;;;;;;;28.90;50.76;97621.91;107682;1274;22604;-79
2022/09/05 06:33:52;;;;;;;5.50;4.80;;;;;;;28.82;48.93;97623.98;107801;1269;28756;-79
2022/09/05 06:36:56;;;;;;;4.70;4.30;;;;;;;29.34;49.36;97624.23;107857;1270;22535;-80
2022/09/05 06:40:02;;;;;;;4.80;4.40;;;;;;;30.38;49.87;97622.40;107893;1271;22543;-79
2022/09/05 06:43:10;;;;;;;4.10;3.50;;;;;;;31.60;48.26;97624.26;107804;1270;32731;-79
2022/09/05 06:46:24;;;;;;;3.80;3.50;;;;;;;31.46;45.88;97623.63;107843;1271;22613;-79
2022/09/05 06:49:18;;;;;;;3.80;3.10;;;;;;;31.56;46.09;97623.95;107762;1271;22693;-80
2022/09/05 06:52:38;;;;;;;3.50;3.00;;;;;;;32.24;44.21;97622.16;107732;1271;49786;-79
2022/09/05 06:55:49;;;;;;;3.40;2.40;;;;;;;32.74;43.42;97622.94;107845;1270;22616;-79
2022/09/05 06:59:13;;;;;;;3.30;2.50;;;;;;;33.81;43.11;97628.61;107844;1271;22591;-79
2022/09/05 07:02:09;;;;;;;3.70;2.60;;;;;;;34.86;40.89;97629.70;107750;1271;31614;-79
2022/09/05 07:05:14;;;;;;;2.90;2.50;;;;;;;35.29;39.92;97629.82;107833;1271;22538;-79
2022/09/05 07:08:16;;;;;;;2.90;2.60;;;;;;;35.90;39.05;97632.71;107798;1271;22581;-80
2022/09/05 07:11:10;;;;;;;2.50;2.30;;;;;;;36.56;38.05;97635.45;107783;1271;22627;-80
2022/09/05 07:14:07;;;;;;;2.70;2.50;;;;;;;36.78;35.41;97639.90;106611;1271;1529047;-79
2022/09/05 07:17:05;;;;;;;3.80;2.70;;;;;;;36.76;35.45;97642.94;107834;1271;22522;-79
2022/09/05 07:20:03;;;;;;;2.40;2.20;;;;;;;36.97;34.85;97643.77;107815;1270;22531;-79
2022/09/05 07:23:12;;;;;;;2.50;2.30;;;;;;;37.24;34.19;97638.99;107773;1271;28702;-79
2022/09/05 07:26:01;;;;;;;3.10;2.60;;;;;;;36.62;33.18;97640.63;107775;1271;23222;-79
2022/09/05 07:28:54;;;;;;;2.50;2.30;;;;;;;37.19;33.75;97641.39;107798;1271;22565;-79
2022/09/05 07:31:47;;;;;;;4.20;2.30;;;;;;;37.91;33.24;97638.83;107739;1270;34419;-79
2022/09/05 07:34:37;;;;;;;2.90;2.30;;;;;;;38.38;31.87;97640.44;107758;1270;22557;-79
2022/09/05 07:37:32;;;;;;;2.30;2.10;;;;;;;38.13;31.41;97636.34;107795;1270;22708;-80
2022/09/05 07:40:24;;;;;;;2.50;2.30;;;;;;;38.42;31.27;97637.96;107789;1270;22551;-80
2022/09/05 07:43:17;;;;;;;2.30;2.10;;;;;;;39.04;31.00;97636.48;107750;1270;29962;-80
2022/09/05 07:46:11;;;;;;;2.60;2.40;;;;;;;39.39;29.99;97636.66;107786;1270;26414;-80
2022/09/05 07:49:05;;;;;;;2.40;2.20;;;;;;;39.56;29.79;97633.05;107815;1270;22690;-79
2022/09/05 07:51:57;;;;;;;3.60;2.80;;;;;;;39.72;28.48;97634.27;107761;1270;24846;-79
2022/09/05 07:54:50;;;;;;;3.00;2.40;;;;;;;39.50;28.87;97634.10;107823;1270;22656;-80
2022/09/05 07:57:46;;;;;;;2.50;2.20;;;;;;;40.03;28.49;97630.88;107811;1269;23057;-80
2022/09/05 08:00:36;;;;;;;3.00;2.80;;;;;;;40.33;28.53;97636.80;107816;1270;22659;-80
2022/09/05 08:03:28;;;;;;;2.90;2.60;;;;;;;40.63;27.99;97638.75;107706;1270;44597;-80
2022/09/05 08:06:22;;;;;;;3.20;2.50;;;;;;;40.61;27.61;97638.89;107803;1270;22611;-80
2022/09/05 08:09:24;;;;;;;3.10;2.90;;;;;;;40.29;26.14;97638.45;107836;1269;24240;-80
2022/09/05 08:12:17;;;;;;;2.90;2.50;;;;;;;39.61;27.10;97636.87;107773;1270;29363;-80
2022/09/05 08:15:13;;;;;;;2.80;2.60;;;;;;;39.86;27.13;97630.46;107845;1270;22856;-80
2022/09/05 08:18:12;;;;;;;3.40;3.10;;;;;;;39.25;27.04;97633.64;107881;1270;22533;-80
2022/09/05 08:21:04;;;;;;;;;;;;;;;39.29;27.54;97636.67;107869;1270;22528;-80
2022/09/05 08:24:00;;;;;;;3.10;2.80;;;;;;;39.67;27.47;97634.27;107779;1270;41096;-80
2022/09/05 08:26:59;;;;;;;3.50;3.20;;;;;;;40.20;27.13;97634.63;107827;1270;22644;-81
2022/09/05 08:29:53;;;;;;;3.10;2.90;;;;;;;40.19;26.47;97636.25;107885;1270;22585;-81
2022/09/05 08:32:46;;;;;;;3.60;3.30;;;;;;;40.25;26.51;97631.67;107847;1270;23802;-80
2022/09/05 08:35:43;;;;;;;31.60;6.10;;;;;;;39.96;26.05;97626.66;107848;1270;22546;-80
2022/09/05 08:38:38;;;;;;;4.00;2.90;;;;;;;40.06;26.75;97624.48;107868;1270;22610;-79
2022/09/05 08:41:32;;;;;;;12.00;4.20;;;;;;;40.29;26.31;97627.80;107864;1270;22539;-78
2022/09/05 08:44:32;;;;;;;3.30;3.00;;;;;;;40.56;26.41;97623.60;107879;1269;22668;-79
2022/09/05 08:47:32;;;;;;;9.70;3.20;;;;;;;38.93;26.06;97619.21;107877;1269;22633;-81
2022/09/05 08:50:33;;;;;;;4.70;3.20;;;;;;;37.11;25.87;97622.20;107926;1270;22541;-80
2022/09/05 08:53:28;;;;;;;12.10;4.20;;;;;;;34.60;28.07;97616.55;107809;1269;26570;-80
2022/09/05 08:56:22;;;;;;;6.30;3.40;;;;;;;34.88;28.30;97614.64;107891;1270;22567;-80
2022/09/05 08:59:26;;;;;;;6.90;3.70;;;;;;;33.98;27.05;97608.46;107892;1270;22551;-80
2022/09/05 09:02:39;;;;;;;4.50;3.20;;;;;;;32.82;29.15;97603.84;107791;1270;24261;-79
2022/09/05 09:06:05;;;;;;;4.30;3.60;;;;;;;30.39;29.71;97605.23;107834;1270;22587;-80
2022/09/05 09:09:17;;;;;;;4.30;3.40;;;;;;;27.62;33.71;97605.73;107841;1271;22491;-80
2022/09/05 09:12:15;;;;;;;5.70;3.40;;;;;;;26.16;35.81;97602.65;107773;1271;28840;-80
2022/09/05 09:15:18;;;;;;;4.30;3.10;;;;;;;25.84;37.52;97604.50;107832;1270;22567;-80
2022/09/05 09:18:15;;;;;;;3.50;3.20;;;;;;;25.42;37.80;97597.59;107814;1269;22565;-80
2022/09/05 09:21:26;;;;;;;3.60;3.20;;;;;;;24.36;38.22;97602.07;107823;1270;24312;-80
2022/09/05 09:24:26;;;;;;;4.00;3.20;;;;;;;23.53;40.00;97598.92;107837;1269;23420;-80
2022/09/05 09:27:26;;;;;;;5.60;3.30;;;;;;;23.40;40.09;97594.94;107836;1270;22803;-80
2022/09/05 09:30:16;;;;;;;3.20;2.90;;;;;;;22.92;41.42;97598.82;107844;1270;25424;-79
2022/09/05 09:33:09;;;;;;;4.00;2.70;;;;;;;22.38;41.90;97599.89;107770;1269;27759;-79
2022/09/05 09:36:08;;;;;;;3.60;3.20;;;;;;;21.88;42.96;97598.31;107817;1269;22681;-80
2022/09/05 09:39:19;;;;;;;4.70;3.40;;;;;;;21.60;44.52;97589.68;107811;1269;22568;-80
2022/09/05 09:42:29;;;;;;;4.60;3.60;;;;;;;21.43;44.34;97588.47;107775;1270;28635;-79
2022/09/05 09:45:37;;;;;;;9.40;3.70;;;;;;;21.75;43.99;97588.77;107817;1271;22961;-80
2022/09/05 09:48:53;;;;;;;3.30;3.00;;;;;;;22.14;43.65;97593.91;107854;1271;25543;-79
2022/09/05 09:52:20;;;;;;;3.80;3.30;;;;;;;21.92;44.16;97592.20;107786;1271;29002;-79
2022/09/05 09:55:45;;;;;;;5.10;3.40;;;;;;;21.79;43.58;97591.89;107826;1271;22655;-80
2022/09/05 09:58:51;;;;;;;3.70;3.30;;;;;;;21.46;44.81;97591.05;107827;1271;22545;-79
2022/09/05 10:01:53;;;;;;;4.80;3.20;;;;;;;21.23;44.89;97589.48;107825;1271;22543;-79
2022/09/05 10:05:00;;;;;;;5.10;3.80;;;;;;;21.17;46.28;97591.08;107850;1268;25317;-80
2022/09/05 10:08:14;;;;;;;6.00;3.80;;;;;;;21.57;46.23;97586.99;107835;1269;22548;-79
2022/09/05 10:11:37;;;;;;;5.50;4.40;;;;;;;21.23;46.87;97587.31;107829;1271;22529;-79
2022/09/05 10:15:00;;;;;;;5.00;4.20;;;;;;;21.10;46.97;97586.14;107797;1271;22563;-79
2022/09/05 10:18:10;;;;;;;3.80;3.20;;;;;;;21.62;48.05;97586.11;107853;1271;25312;-80
2022/09/05 10:21:02;;;;;;;;;;;;;;;22.15;46.88;97582.36;107875;1271;25293;-79
2022/09/05 10:24:12;;;;;;;7.10;3.90;;;;;;;22.58;46.29;97579.59;107750;1270;37259;-79
2022/09/05 10:27:18;;;;;;;;;;;;;;;22.60;44.70;97574.11;107843;1270;24234;-80
2022/09/05 10:30:15;;;;;;;4.40;3.30;;;;;;;22.03;44.82;97576.66;107828;1269;22547;-79
2022/09/05 10:33:26;;;;;;;4.40;3.40;;;;;;;21.58;45.70;97570.80;107804;1270;40048;-79
2022/09/05 10:36:26;;;;;;;4.50;3.40;;;;;;;21.56;46.35;97571.45;107940;1270;22558;-79
2022/09/05 10:39:24;;;;;;;5.00;3.60;;;;;;;21.26;46.58;97571.02;107906;1270;22608;-79
2022/09/05 10:42:18;;;;;;;5.40;3.60;;;;;;;21.12;47.60;97571.64;107833;1270;30303;-79
2022/09/05 10:45:21;;;;;;;4.60;3.20;;;;;;;21.15;48.33;97570.19;107870;1270;23523;-79
2022/09/05 10:48:21;;;;;;;5.10;3.80;;;;;;;21.24;47.90;97566.19;107858;1270;22547;-79
2022/09/05 10:51:18;;;;;;;5.40;3.80;;;;;;;21.16;46.93;97562.05;107861;1269;23177;-79
2022/09/05 10:54:26;;;;;;;6.10;3.70;;;;;;;20.85;48.13;97565.39;107845;1270;23202;-79
2022/09/05 10:57:31;;;;;;;5.30;3.90;;;;;;;20.64;48.07;97566.50;107856;1269;22642;-79
2022/09/05 11:00:47;;;;;;;7.00;3.90;;;;;;;20.71;49.37;97557.17;107820;1268;25271;-79
2022/09/05 11:03:49;;;;;;;5.80;3.90;;;;;;;21.09;49.17;97557.05;107838;1268;30631;-79
2022/09/05 11:06:53;;;;;;;4.80;3.80;;;;;;;21.44;48.85;97554.40;107885;1269;22541;-79
2022/09/05 11:09:52;;;;;;;4.30;3.20;;;;;;;21.81;48.75;97556.09;107940;1269;22767;-79
2022/09/05 11:13:20;;;;;;;5.20;3.70;;;;;;;22.12;47.79;97550.56;107813;1270;31155;-79
2022/09/05 11:16:20;;;;;;;5.60;3.90;;;;;;;22.36;48.00;97545.88;107631;1273;22615;-79
2022/09/05 11:19:17;;;;;;;6.60;3.80;;;;;;;22.53;46.58;97543.59;107836;1269;22684;-78
2022/09/05 11:22:07;;;;;;;6.30;4.30;;;;;;;21.94;46.54;97545.94;107788;1270;45174;-78
2022/09/05 11:24:59;;;;;;;5.80;4.00;;;;;;;22.10;48.28;97543.00;107937;1270;25356;-78
2022/09/05 11:27:52;;;;;;;4.80;3.80;;;;;;;22.16;46.61;97544.97;107927;1268;22846;-79
2022/09/05 11:30:46;;;;;;;4.90;3.70;;;;;;;21.63;47.22;97544.77;107822;1269;22538;-79
2022/09/05 11:34:01;;;;;;;5.00;4.00;;;;;;;21.69;47.94;97543.60;108002;1270;31177;-80
2022/09/05 11:36:53;;;;;;;4.90;3.20;;;;;;;21.80;45.44;97549.02;108061;1270;22630;-81
2022/09/05 11:40:22;;;;;;;5.10;3.60;;;;;;;21.46;46.77;97541.44;108061;1270;22556;-77
2022/09/05 11:43:44;;;;;;;5.50;3.90;;;;;;;21.60;47.43;97541.02;107974;1270;27012;-79
2022/09/05 11:46:41;;;;;;;7.90;4.30;;;;;;;22.04;47.71;97538.44;107828;1270;25527;-80
2022/09/05 11:49:52;;;;;;;7.80;4.30;;;;;;;22.29;47.33;97533.26;107946;1269;22547;-80
2022/09/05 11:52:52;;;;;;;;;;;;;;;22.12;45.72;97532.09;107853;1269;36589;-79
2022/09/05 11:56:17;;;;;;;6.40;4.10;;;;;;;22.01;47.18;97535.57;107938;1269;22712;-79
2022/09/05 11:59:19;;;;;;;6.30;4.20;;;;;;;22.40;47.51;97529.79;107933;1270;22645;-80
2022/09/05 12:02:26;;;;;;;6.90;4.20;;;;;;;22.58;46.18;97529.52;107850;1269;37561;-79
2022/09/05 12:05:36;;;;;;;8.60;4.10;;;;;;;22.60;46.62;97526.09;107933;1268;24459;-80
2022/09/05 12:08:36;;;;;;;;;;;;;;;22.77;46.66;97526.45;107953;1269;22533;-78
2022/09/05 12:11:42;;;;;;;7.00;3.90;;;;;;;22.82;46.63;97524.23;107920;1269;22781;-79
2022/09/05 12:14:42;;;;;;;5.00;3.60;;;;;;;23.05;46.47;97520.75;107953;1269;22526;-79
2022/09/05 12:17:41;;;;;;;6.40;3.80;;;;;;;22.68;44.06;97524.52;107957;1270;22691;-79
2022/09/05 12:20:39;;;;;;;10.00;4.10;;;;;;;22.36;45.36;97531.18;107932;1270;22549;-79
2022/09/05 12:23:39;;;;;;;6.80;3.90;;;;;;;22.55;45.08;97524.45;107853;1269;28043;-79
2022/09/05 12:26:34;;;;;;;4.40;3.80;;;;;;;22.64;45.26;97520.45;107958;1269;22614;-79
2022/09/05 12:29:26;;;;;;;4.70;3.50;;;;;;;22.84;45.35;97521.91;107920;1269;22556;-79
2022/09/05 12:32:19;;;;;;;5.60;3.40;;;;;;;22.60;43.67;97515.67;107884;1270;24293;-79
2022/09/05 12:35:09;;;;;;;7.50;4.40;;;;;;;22.15;44.99;97513.80;107964;1269;25519;-79
2022/09/05 12:38:05;;;;;;;7.20;4.00;;;;;;;22.35;45.88;97514.87;108051;1270;25667;-79
2022/09/05 12:41:04;;;;;;;5.30;3.50;;;;;;;22.56;45.10;97506.34;108018;1270;22522;-79
2022/09/05 12:46:57;;;;;;;4.80;3.90;;;;;;;22.06;44.80;97510.33;104359;1309;545836;-79
2022/09/05 12:49:56;;;;;;;7.00;4.20;;;;;;;22.10;44.86;97507.65;107281;1280;22617;-79
2022/09/05 12:52:49;;;;;;;7.20;4.20;;;;;;;22.10;44.62;97503.02;107102;1280;30456;-79
2022/09/05 12:55:42;;;;;;;10.60;4.10;;;;;;;22.00;44.82;97503.02;106961;1283;22560;-79
2022/09/05 12:58:34;;;;;;;9.20;3.60;;;;;;;22.00;45.55;97502.34;106978;1283;24252;-79
2022/09/05 13:01:29;;;;;;;5.40;3.60;;;;;;;22.24;46.45;97501.30;106084;1281;1550033;-79
2022/09/05 13:04:21;;;;;;;8.00;4.20;;;;;;;22.51;45.96;97501.45;107442;1278;24220;-79
2022/09/05 13:07:15;;;;;;;7.60;4.10;;;;;;;22.40;44.23;97503.02;107952;1270;25417;-78
2022/09/05 13:10:13;;;;;;;8.60;5.10;;;;;;;22.02;44.59;97499.16;107871;1270;22547;-78
2022/09/05 13:13:09;;;;;;;5.60;4.00;;;;;;;21.92;45.77;97493.34;107814;1270;27703;-78
2022/09/05 13:15:58;;;;;;;6.50;3.90;;;;;;;22.14;45.78;97490.61;107900;1270;24507;-78
2022/09/05 13:18:50;;;;;;;5.70;4.00;;;;;;;22.21;45.23;97491.79;107914;1270;25393;-79
2022/09/05 13:21:49;;;;;;;7.20;4.30;;;;;;;22.32;45.12;97490.23;107852;1270;22553;-78
2022/09/05 13:24:41;;;;;;;5.20;4.00;;;;;;;21.84;44.32;97485.40;107882;1270;22554;-78
2022/09/05 13:27:33;;;;;;;8.00;4.30;;;;;;;21.72;45.65;97487.81;107895;1270;22552;-79
2022/09/05 13:30:22;;;;;;;6.90;4.30;;;;;;;21.78;46.13;97490.24;107872;1270;24320;-79
2022/09/05 13:33:18;;;;;;;6.50;4.10;;;;;;;21.94;46.42;97484.21;107860;1270;30375;-78
2022/09/05 13:36:11;;;;;;;6.40;3.80;;;;;;;22.05;45.57;97485.91;107852;1270;22563;-79
2022/09/05 13:39:04;;;;;;;5.30;4.10;;;;;;;22.00;45.47;97482.74;107865;1270;22693;-79
2022/09/05 13:42:02;;;;;;;5.50;3.60;;;;;;;21.90;45.44;97486.55;107791;1270;30004;-78
2022/09/05 13:44:55;;;;;;;4.70;3.70;;;;;;;21.87;45.99;97484.81;107865;1270;22610;-78
2022/09/05 13:48:16;;;;;;;7.00;4.40;;;;;;;21.95;46.34;97486.17;107871;1270;22557;-78
2022/09/05 13:51:26;;;;;;;6.00;3.90;;;;;;;22.09;46.57;97486.81;107930;1270;25270;-78
2022/09/05 13:54:31;;;;;;;7.50;4.10;;;;;;;22.13;45.85;97485.15;107898;1270;22541;-79
2022/09/05 13:57:38;;;;;;;7.00;3.70;;;;;;;21.87;45.56;97483.66;107945;1270;22619;-79
2022/09/05 14:01:06;;;;;;;6.90;3.70;;;;;;;21.89;46.07;97481.11;107796;1270;23275;-79
2022/09/05 14:04:46;;;;;;;4.60;3.40;;;;;;;21.87;45.52;97483.41;107762;1270;27818;-78
2022/09/05 14:08:00;;;;;;;3.70;3.30;;;;;;;21.80;46.13;97478.54;107833;1270;24241;-78
2022/09/05 14:11:16;;;;;;;7.40;4.00;;;;;;;21.69;45.59;97476.59;107874;1270;22993;-79
2022/09/05 14:14:12;;;;;;;4.50;3.70;;;;;;;21.68;46.46;97479.17;107768;1270;34033;-78